Blue River, Oregon
Current Conditions -  °F | °C
As of 3:06 AM on Thursday 23 Oct 2014 (Local Time) from KEUG Reporting Station
Overcast Overcast  
Wind Chill: 56°   Ceiling: 10000
Heat Index: 56°   Visibility: 10mi
Dew Point: 54°   Wind: 7mph
Humidity: 93%   Direction: 150°SSE
Pressure: 29.79"   Gusts: NA
Location:  44.15°N, 122.34°W
Report Text: KEUG 231006Z AUTO 15006KT 10SM SCT025 OVC100 13/12 A2979 RMK AO2 T01330122
Loading
Personal Weather Stations






























Interactive Weather Map
Tropical Storm Tracking
New forecast layout! Learn more

10-Day Weather Forecast

Advertisements
Track Severe Weather on mobile